createdAt,value
2018-09-02T00:00:12.214Z,3.21
2018-09-02T00:00:24.623Z,3.21
2018-09-02T00:00:37.064Z,3.21
2018-09-02T00:00:49.473Z,3.21
2018-09-02T00:01:01.886Z,3.21
2018-09-02T00:01:14.679Z,3.21
2018-09-02T00:01:27.118Z,3.21
2018-09-02T00:01:39.551Z,3.21
2018-09-02T00:01:51.961Z,3.21
2018-09-02T00:02:04.395Z,3.21
2018-09-02T00:02:16.833Z,3.21
2018-09-02T00:02:29.262Z,3.21
2018-09-02T00:02:41.677Z,3.21
2018-09-02T00:02:54.125Z,3.21
2018-09-02T00:03:06.538Z,3.21
2018-09-02T00:03:18.964Z,3.21
2018-09-02T00:03:31.366Z,3.21
2018-09-02T00:03:43.790Z,3.21
2018-09-02T00:03:56.193Z,3.21
2018-09-02T00:04:08.613Z,3.21
2018-09-02T00:04:21.071Z,3.21
2018-09-02T00:04:33.468Z,3.21
2018-09-02T00:04:45.883Z,3.21
2018-09-02T00:04:58.287Z,3.21
2018-09-02T00:05:10.719Z,3.21
2018-09-02T00:05:23.144Z,3.21
2018-09-02T00:05:35.536Z,3.21
2018-09-02T00:05:47.940Z,3.21
2018-09-02T00:06:00.333Z,3.21
2018-09-02T00:06:12.770Z,3.21
2018-09-02T00:06:25.207Z,3.21
2018-09-02T00:06:37.617Z,3.21
2018-09-02T00:06:50.016Z,3.21
2018-09-02T00:07:02.414Z,3.21
2018-09-02T00:07:14.817Z,3.21
2018-09-02T00:07:27.217Z,3.21
2018-09-02T00:07:39.631Z,4.48
2018-09-02T00:07:52.030Z,4.48
2018-09-02T00:08:04.436Z,4.48
2018-09-02T00:08:16.827Z,4.48
2018-09-02T00:08:29.227Z,4.48
2018-09-02T00:08:41.626Z,4.48
2018-09-02T00:08:54.063Z,4.48
2018-09-02T00:09:06.520Z,4.48
2018-09-02T00:09:18.953Z,4.48
2018-09-02T00:09:31.371Z,4.48
2018-09-02T00:09:43.850Z,4.48
2018-09-02T00:09:56.263Z,4.48
2018-09-02T00:10:08.699Z,4.48
2018-09-02T00:10:21.110Z,4.48
2018-09-02T00:10:33.645Z,4.48
2018-09-02T00:10:46.045Z,4.48
2018-09-02T00:10:58.448Z,4.48
2018-09-02T00:11:10.863Z,4.48
2018-09-02T00:11:23.265Z,4.48
2018-09-02T00:11:35.667Z,4.48
2018-09-02T00:11:48.293Z,4.48
2018-09-02T00:12:00.704Z,4.48
2018-09-02T00:12:13.125Z,4.48
2018-09-02T00:12:25.526Z,4.48
2018-09-02T00:12:37.922Z,4.48
2018-09-02T00:12:50.476Z,4.48
2018-09-02T00:13:02.908Z,4.48
2018-09-02T00:13:15.306Z,4.48
2018-09-02T00:13:27.793Z,4.48
2018-09-02T00:13:40.218Z,4.48
2018-09-02T00:13:52.641Z,4.48
2018-09-02T00:14:05.050Z,4.48
2018-09-02T00:14:17.507Z,4.48
2018-09-02T00:14:29.908Z,4.48
2018-09-02T00:14:42.313Z,4.48
2018-09-02T00:14:54.727Z,4.48
2018-09-02T00:15:07.139Z,4.48
2018-09-02T00:15:19.561Z,4.48
2018-09-02T00:15:31.967Z,4.48
2018-09-02T00:15:44.369Z,4.48
2018-09-02T00:15:56.784Z,4.48
2018-09-02T00:16:09.177Z,4.48
2018-09-02T00:16:21.570Z,4.48
2018-09-02T00:16:33.961Z,4.48
2018-09-02T00:16:46.437Z,4.48
2018-09-02T00:16:58.856Z,4.48
2018-09-02T00:17:11.269Z,4.48
2018-09-02T00:17:23.663Z,4.48
2018-09-02T00:17:36.080Z,3.62
2018-09-02T00:17:48.485Z,3.62
2018-09-02T00:18:00.901Z,3.62
2018-09-02T00:18:13.306Z,3.62
2018-09-02T00:18:25.717Z,3.62
2018-09-02T00:18:38.125Z,3.62
2018-09-02T00:18:50.537Z,3.62
2018-09-02T00:19:02.924Z,3.62
2018-09-02T00:19:15.344Z,3.62
2018-09-02T00:19:27.742Z,3.62
2018-09-02T00:19:40.317Z,3.62
2018-09-02T00:19:52.725Z,3.62
2018-09-02T00:20:05.132Z,3.62
2018-09-02T00:20:17.539Z,3.62
2018-09-02T00:20:30.557Z,3.62
2018-09-02T00:20:44.218Z,3.62
2018-09-02T00:20:56.649Z,3.62
2018-09-02T00:21:09.068Z,3.62
2018-09-02T00:21:21.478Z,3.62
2018-09-02T00:21:33.901Z,3.62
2018-09-02T00:21:46.298Z,3.62
2018-09-02T00:21:58.705Z,3.62
2018-09-02T00:22:11.091Z,3.62
2018-09-02T00:22:23.492Z,3.62
2018-09-02T00:22:35.892Z,3.62
2018-09-02T00:22:48.492Z,3.62
2018-09-02T00:23:01.041Z,3.62
2018-09-02T00:23:13.455Z,3.62
2018-09-02T00:23:25.889Z,3.62
2018-09-02T00:23:38.652Z,3.62
2018-09-02T00:23:51.094Z,3.62
2018-09-02T00:24:03.488Z,3.62
2018-09-02T00:24:15.892Z,3.62
2018-09-02T00:24:28.299Z,3.62
2018-09-02T00:24:40.714Z,3.62
2018-09-02T00:24:53.132Z,3.62
2018-09-02T00:25:05.559Z,3.62
2018-09-02T00:25:17.955Z,3.62
2018-09-02T00:25:30.694Z,3.62
2018-09-02T00:25:43.097Z,3.62
2018-09-02T00:25:55.545Z,3.62
2018-09-02T00:26:08.006Z,3.62
2018-09-02T00:26:20.410Z,3.62
2018-09-02T00:26:32.817Z,3.62
2018-09-02T00:26:45.231Z,3.62
2018-09-02T00:26:57.641Z,3.62
2018-09-02T00:27:10.066Z,3.62
2018-09-02T00:27:22.482Z,3.62
2018-09-02T00:27:34.881Z,3.1
2018-09-02T00:27:47.305Z,3.1
2018-09-02T00:27:59.721Z,3.1
2018-09-02T00:28:12.121Z,3.1
2018-09-02T00:28:24.517Z,3.1
2018-09-02T00:28:36.936Z,3.1
2018-09-02T00:28:49.391Z,3.1
2018-09-02T00:29:01.809Z,3.1
2018-09-02T00:29:14.210Z,3.1
2018-09-02T00:29:26.619Z,3.1
2018-09-02T00:29:39.032Z,3.1
2018-09-02T00:29:51.444Z,3.1
2018-09-02T00:30:03.843Z,3.1
2018-09-02T00:30:16.286Z,3.1
2018-09-02T00:30:29.154Z,3.1
2018-09-02T00:30:41.551Z,3.1
2018-09-02T00:30:53.963Z,3.1
2018-09-02T00:31:06.420Z,3.1
2018-09-02T00:31:18.830Z,3.1
2018-09-02T00:31:31.248Z,3.1
2018-09-02T00:31:43.654Z,3.1
2018-09-02T00:31:56.390Z,3.1
2018-09-02T00:32:08.807Z,3.1
2018-09-02T00:32:21.216Z,3.1
2018-09-02T00:32:33.617Z,3.1
2018-09-02T00:32:46.046Z,3.1
2018-09-02T00:32:58.858Z,3.1
2018-09-02T00:33:12.295Z,3.1
2018-09-02T00:33:26.106Z,3.1
2018-09-02T00:33:38.534Z,3.1
2018-09-02T00:33:52.191Z,3.1
2018-09-02T00:34:06.055Z,3.1
2018-09-02T00:34:18.481Z,3.1
2018-09-02T00:34:30.893Z,3.1
2018-09-02T00:34:43.296Z,3.1
2018-09-02T00:34:55.703Z,3.1
2018-09-02T00:35:08.329Z,3.1
2018-09-02T00:35:20.822Z,3.1
2018-09-02T00:35:33.236Z,3.1
2018-09-02T00:35:45.654Z,3.1
2018-09-02T00:35:58.076Z,3.1
2018-09-02T00:36:10.628Z,3.1
2018-09-02T00:36:23.101Z,3.1
2018-09-02T00:36:35.568Z,3.1
2018-09-02T00:36:47.980Z,3.1
2018-09-02T00:37:00.540Z,3.1
2018-09-02T00:37:12.961Z,3.1
2018-09-02T00:37:25.404Z,3.1
2018-09-02T00:37:37.829Z,3.55
2018-09-02T00:37:50.234Z,3.55
2018-09-02T00:38:02.657Z,3.55
2018-09-02T00:38:15.077Z,3.55
2018-09-02T00:38:27.494Z,3.55
2018-09-02T00:38:39.907Z,3.55
2018-09-02T00:38:52.327Z,3.55
2018-09-02T00:39:04.748Z,3.55
2018-09-02T00:39:17.164Z,3.55
2018-09-02T00:39:29.578Z,3.55
2018-09-02T00:39:41.978Z,3.55
2018-09-02T00:39:54.376Z,3.55
2018-09-02T00:40:06.851Z,3.55
2018-09-02T00:40:19.267Z,3.55
2018-09-02T00:40:31.693Z,3.55
2018-09-02T00:40:44.144Z,3.55
2018-09-02T00:40:56.541Z,3.55
2018-09-02T00:41:08.951Z,3.55
2018-09-02T00:41:21.867Z,3.55
2018-09-02T00:41:34.275Z,3.55
2018-09-02T00:41:46.672Z,3.55
2018-09-02T00:41:59.138Z,3.55
2018-09-02T00:42:11.864Z,3.55
2018-09-02T00:42:24.276Z,3.55
2018-09-02T00:42:36.730Z,3.55
2018-09-02T00:42:49.133Z,3.55
2018-09-02T00:43:01.549Z,3.55
2018-09-02T00:43:13.937Z,3.55
2018-09-02T00:43:26.348Z,3.55
2018-09-02T00:43:38.773Z,3.55
2018-09-02T00:43:51.171Z,3.55
2018-09-02T00:44:03.585Z,3.55
2018-09-02T00:44:15.981Z,3.55
2018-09-02T00:44:28.380Z,3.55
2018-09-02T00:44:40.780Z,3.55
2018-09-02T00:44:53.249Z,3.55
2018-09-02T00:45:05.652Z,3.55
2018-09-02T00:45:18.055Z,3.55
2018-09-02T00:45:30.438Z,3.55
2018-09-02T00:45:42.835Z,3.55
2018-09-02T00:45:55.224Z,3.55
2018-09-02T00:46:07.615Z,3.55
2018-09-02T00:46:20.035Z,3.55
2018-09-02T00:46:32.456Z,3.55
2018-09-02T00:46:44.882Z,3.55
2018-09-02T00:46:57.283Z,3.55
2018-09-02T00:47:09.714Z,3.55
2018-09-02T00:47:22.156Z,3.55
2018-09-02T00:47:34.571Z,3.96
2018-09-02T00:47:46.992Z,3.96
2018-09-02T00:47:59.436Z,3.96
2018-09-02T00:48:11.856Z,3.96
2018-09-02T00:48:24.252Z,3.96
2018-09-02T00:48:36.663Z,3.96
2018-09-02T00:48:49.059Z,3.96
2018-09-02T00:49:01.463Z,3.96
2018-09-02T00:49:13.962Z,3.96
2018-09-02T00:49:26.377Z,3.96
2018-09-02T00:49:38.805Z,3.96
2018-09-02T00:49:51.259Z,3.96
2018-09-02T00:50:03.681Z,3.96
2018-09-02T00:50:16.084Z,3.96
2018-09-02T00:50:28.481Z,3.96
2018-09-02T00:50:40.943Z,3.96
2018-09-02T00:50:53.355Z,3.96
2018-09-02T00:51:05.750Z,3.96
2018-09-02T00:51:18.185Z,3.96
2018-09-02T00:51:30.607Z,3.96
2018-09-02T00:51:43.019Z,3.96
2018-09-02T00:51:55.436Z,3.96
2018-09-02T00:52:07.846Z,3.96
2018-09-02T00:52:20.237Z,3.96
2018-09-02T00:52:32.638Z,3.96
2018-09-02T00:52:45.045Z,3.96
2018-09-02T00:52:57.448Z,3.96
2018-09-02T00:53:10.071Z,3.96
2018-09-02T00:53:22.476Z,3.96
2018-09-02T00:53:34.888Z,3.96
2018-09-02T00:53:47.307Z,3.96
2018-09-02T00:53:59.716Z,3.96
2018-09-02T00:54:12.191Z,3.96
2018-09-02T00:54:24.601Z,3.96
2018-09-02T00:54:37.001Z,3.96
2018-09-02T00:54:49.422Z,3.96
2018-09-02T00:55:01.840Z,3.96
2018-09-02T00:55:14.247Z,3.96
2018-09-02T00:55:26.641Z,3.96
2018-09-02T00:55:39.047Z,3.96
2018-09-02T00:55:51.460Z,3.96
2018-09-02T00:56:03.871Z,3.96
2018-09-02T00:56:16.282Z,3.96
2018-09-02T00:56:28.678Z,3.96
2018-09-02T00:56:41.087Z,3.96
2018-09-02T00:56:53.876Z,3.96
2018-09-02T00:57:06.377Z,3.96
2018-09-02T00:57:18.816Z,3.96
2018-09-02T00:57:31.232Z,3.96
2018-09-02T00:57:43.639Z,3.45
2018-09-02T00:57:56.075Z,3.45
2018-09-02T00:58:08.487Z,3.45
2018-09-02T00:58:20.919Z,3.45
2018-09-02T00:58:33.350Z,3.45
2018-09-02T00:58:45.807Z,3.45
2018-09-02T00:58:58.274Z,3.45
2018-09-02T00:59:10.699Z,3.45
2018-09-02T00:59:23.118Z,3.45
2018-09-02T00:59:35.526Z,3.45
2018-09-02T00:59:47.957Z,3.45
2018-09-02T01:00:00.366Z,3.45
2018-09-02T01:00:12.803Z,3.45
2018-09-02T01:00:25.242Z,3.45
2018-09-02T01:00:37.702Z,3.45
2018-09-02T01:00:50.131Z,3.45
2018-09-02T01:01:02.585Z,3.45
2018-09-02T01:01:15.197Z,3.45
2018-09-02T01:01:27.623Z,3.45
2018-09-02T01:01:40.046Z,3.45
2018-09-02T01:01:52.473Z,3.45
2018-09-02T01:02:04.894Z,3.45
2018-09-02T01:02:17.396Z,3.45
2018-09-02T01:02:29.833Z,3.45
2018-09-02T01:02:42.252Z,3.45
2018-09-02T01:02:54.791Z,3.45
2018-09-02T01:03:07.208Z,3.45
2018-09-02T01:03:19.611Z,3.45
2018-09-02T01:03:32.017Z,3.45
2018-09-02T01:03:44.587Z,3.45
2018-09-02T01:03:57.008Z,3.45
2018-09-02T01:04:09.413Z,3.45
2018-09-02T01:04:21.846Z,3.45
2018-09-02T01:04:34.251Z,3.45
2018-09-02T01:04:46.660Z,3.45
2018-09-02T01:04:59.085Z,3.45
2018-09-02T01:05:11.494Z,3.45
2018-09-02T01:05:23.899Z,3.45
2018-09-02T01:05:36.318Z,3.45
2018-09-02T01:05:48.731Z,3.45
2018-09-02T01:06:01.143Z,3.45
2018-09-02T01:06:13.598Z,3.45
2018-09-02T01:06:26.012Z,3.45
2018-09-02T01:06:38.412Z,3.45
2018-09-02T01:06:50.890Z,3.45
2018-09-02T01:07:03.273Z,3.45
2018-09-02T01:07:15.697Z,3.45
2018-09-02T01:07:28.123Z,3.45
2018-09-02T01:07:40.535Z,3.9
2018-09-02T01:07:52.958Z,3.9
2018-09-02T01:08:05.342Z,3.9
2018-09-02T01:08:17.739Z,3.9
2018-09-02T01:08:30.138Z,3.9
2018-09-02T01:08:42.524Z,3.9
2018-09-02T01:08:54.912Z,3.9
2018-09-02T01:09:07.392Z,3.9
2018-09-02T01:09:19.848Z,3.9
2018-09-02T01:09:32.280Z,3.9
2018-09-02T01:09:44.685Z,3.9
2018-09-02T01:09:57.102Z,3.9
2018-09-02T01:10:09.529Z,3.9
2018-09-02T01:10:21.928Z,3.9
2018-09-02T01:10:34.411Z,3.9
2018-09-02T01:10:46.828Z,3.9
2018-09-02T01:10:59.223Z,3.9
2018-09-02T01:11:11.629Z,3.9
2018-09-02T01:11:24.033Z,3.9
2018-09-02T01:11:36.433Z,3.9
2018-09-02T01:11:49.003Z,3.9
2018-09-02T01:12:01.411Z,3.9
2018-09-02T01:12:13.823Z,3.9
2018-09-02T01:12:26.225Z,3.9
2018-09-02T01:12:38.625Z,3.9
2018-09-02T01:12:51.196Z,3.9
2018-09-02T01:13:03.628Z,3.9
2018-09-02T01:13:16.021Z,3.9
2018-09-02T01:13:28.453Z,3.9
2018-09-02T01:13:40.854Z,3.9
2018-09-02T01:13:53.262Z,3.9
2018-09-02T01:14:05.676Z,3.9
2018-09-02T01:14:18.079Z,3.9
2018-09-02T01:14:30.590Z,3.9
2018-09-02T01:14:43.012Z,3.9
2018-09-02T01:14:55.457Z,3.9
2018-09-02T01:15:07.856Z,3.9
2018-09-02T01:15:20.254Z,3.9
2018-09-02T01:15:32.663Z,3.9
2018-09-02T01:15:45.060Z,3.9
2018-09-02T01:15:57.464Z,3.9
2018-09-02T01:16:09.865Z,3.9
2018-09-02T01:16:22.274Z,3.9
2018-09-02T01:16:34.691Z,3.9
2018-09-02T01:16:47.102Z,3.9
2018-09-02T01:16:59.515Z,3.9
2018-09-02T01:17:11.928Z,3.9
2018-09-02T01:17:24.341Z,3.9
2018-09-02T01:17:36.733Z,3.57
2018-09-02T01:17:49.290Z,3.57
2018-09-02T01:18:01.697Z,3.57
2018-09-02T01:18:14.117Z,3.57
2018-09-02T01:18:26.533Z,3.57
2018-09-02T01:18:38.939Z,3.57
2018-09-02T01:18:51.364Z,3.57
2018-09-02T01:19:03.772Z,3.57
2018-09-02T01:19:16.205Z,3.57
2018-09-02T01:19:28.610Z,3.57
2018-09-02T01:19:41.104Z,3.57
2018-09-02T01:19:53.545Z,3.57
2018-09-02T01:20:05.988Z,3.57
2018-09-02T01:20:18.430Z,3.57
2018-09-02T01:20:30.843Z,3.57
2018-09-02T01:20:43.262Z,3.57
2018-09-02T01:20:55.661Z,3.57
2018-09-02T01:21:08.257Z,3.57
2018-09-02T01:21:20.679Z,3.57
2018-09-02T01:21:33.086Z,3.57
2018-09-02T01:21:45.496Z,3.57
2018-09-02T01:21:57.922Z,3.57
2018-09-02T01:22:10.319Z,3.57
2018-09-02T01:22:22.746Z,3.57
2018-09-02T01:22:35.158Z,3.57
2018-09-02T01:22:47.722Z,3.57
2018-09-02T01:23:00.604Z,3.57
2018-09-02T01:23:14.711Z,3.57
2018-09-02T01:23:27.203Z,3.57
2018-09-02T01:23:39.953Z,3.57
2018-09-02T01:23:52.363Z,3.57
2018-09-02T01:24:04.773Z,3.57
2018-09-02T01:24:17.180Z,3.57
2018-09-02T01:24:29.614Z,3.57
2018-09-02T01:24:42.014Z,3.57
2018-09-02T01:24:54.419Z,3.57
2018-09-02T01:25:06.814Z,3.57
2018-09-02T01:25:19.229Z,3.57
2018-09-02T01:25:31.947Z,3.57
2018-09-02T01:25:44.375Z,3.57
2018-09-02T01:25:56.811Z,3.57
2018-09-02T01:26:09.216Z,3.57
2018-09-02T01:26:21.627Z,3.57
2018-09-02T01:26:34.049Z,3.57
2018-09-02T01:26:46.464Z,3.57
2018-09-02T01:26:58.864Z,3.57
2018-09-02T01:27:11.350Z,3.57
2018-09-02T01:27:23.770Z,3.57
2018-09-02T01:27:36.180Z,3.12
2018-09-02T01:27:48.615Z,3.12
2018-09-02T01:28:01.007Z,3.12
2018-09-02T01:28:13.408Z,3.12
2018-09-02T01:28:25.819Z,3.12
2018-09-02T01:28:38.276Z,3.12
2018-09-02T01:28:50.708Z,3.12
2018-09-02T01:29:03.103Z,3.12
2018-09-02T01:29:15.559Z,3.12
2018-09-02T01:29:28.031Z,3.12
2018-09-02T01:29:40.450Z,3.12
2018-09-02T01:29:52.852Z,3.12
2018-09-02T01:30:05.273Z,3.12
2018-09-02T01:30:17.697Z,3.12
2018-09-02T01:30:30.135Z,3.12
2018-09-02T01:30:42.540Z,3.12
2018-09-02T01:30:55.011Z,3.12
2018-09-02T01:31:07.409Z,3.12
2018-09-02T01:31:19.817Z,3.12
2018-09-02T01:31:32.258Z,3.12
2018-09-02T01:31:44.730Z,3.12
2018-09-02T01:31:57.288Z,3.12
2018-09-02T01:32:09.685Z,3.12
2018-09-02T01:32:22.257Z,3.12
2018-09-02T01:32:34.682Z,3.12
2018-09-02T01:32:47.080Z,3.12
2018-09-02T01:32:59.497Z,3.12
2018-09-02T01:33:11.914Z,3.12
2018-09-02T01:33:24.347Z,3.12
2018-09-02T01:33:36.770Z,3.12
2018-09-02T01:33:49.199Z,3.12
2018-09-02T01:34:01.611Z,3.12
2018-09-02T01:34:14.116Z,3.12
2018-09-02T01:34:26.557Z,3.12
2018-09-02T01:34:38.975Z,3.12
2018-09-02T01:34:51.405Z,3.12
2018-09-02T01:35:03.818Z,3.12
2018-09-02T01:35:16.248Z,3.12
2018-09-02T01:35:28.693Z,3.12
2018-09-02T01:35:41.116Z,3.12
2018-09-02T01:35:53.549Z,3.12
2018-09-02T01:36:05.948Z,3.12
2018-09-02T01:36:18.512Z,3.12
2018-09-02T01:36:30.909Z,3.12
2018-09-02T01:36:43.399Z,3.12
2018-09-02T01:36:55.820Z,3.12
2018-09-02T01:37:08.237Z,3.12
2018-09-02T01:37:20.653Z,3.12
2018-09-02T01:37:33.051Z,3.12
2018-09-02T01:37:45.450Z,3.89
2018-09-02T01:37:57.867Z,3.89
2018-09-02T01:38:10.276Z,3.89
2018-09-02T01:38:22.706Z,3.89
2018-09-02T01:38:35.105Z,3.89
2018-09-02T01:38:47.514Z,3.89
2018-09-02T01:38:59.911Z,3.89
2018-09-02T01:39:12.339Z,3.89
2018-09-02T01:39:24.775Z,3.89
2018-09-02T01:39:37.178Z,3.89
2018-09-02T01:39:49.571Z,3.89
2018-09-02T01:40:01.988Z,3.89
2018-09-02T01:40:14.399Z,3.89
2018-09-02T01:40:26.811Z,3.89
2018-09-02T01:40:39.208Z,3.89
2018-09-02T01:40:51.623Z,3.89
2018-09-02T01:41:04.023Z,3.89
2018-09-02T01:41:16.424Z,3.89
2018-09-02T01:41:29.003Z,3.89
2018-09-02T01:41:41.414Z,3.89
2018-09-02T01:41:53.834Z,3.89
2018-09-02T01:42:06.303Z,3.89
2018-09-02T01:42:18.860Z,3.89
2018-09-02T01:42:31.268Z,3.89
2018-09-02T01:42:43.695Z,3.89
2018-09-02T01:42:56.170Z,3.89
2018-09-02T01:43:08.585Z,3.89
2018-09-02T01:43:21.017Z,3.89
2018-09-02T01:43:33.452Z,3.89
2018-09-02T01:43:45.868Z,3.89
2018-09-02T01:43:58.275Z,3.89
2018-09-02T01:44:10.716Z,3.89
2018-09-02T01:44:23.151Z,3.89
2018-09-02T01:44:35.591Z,3.89
2018-09-02T01:44:48.003Z,3.89
2018-09-02T01:45:00.417Z,3.89
2018-09-02T01:45:12.901Z,3.89
2018-09-02T01:45:25.341Z,3.89
2018-09-02T01:45:37.813Z,3.89
2018-09-02T01:45:50.255Z,3.89
2018-09-02T01:46:02.662Z,3.89
2018-09-02T01:46:15.072Z,3.89
2018-09-02T01:46:27.526Z,3.89
2018-09-02T01:46:39.924Z,3.89
2018-09-02T01:46:52.386Z,3.89
2018-09-02T01:47:04.783Z,3.89
2018-09-02T01:47:17.196Z,3.89
2018-09-02T01:47:29.605Z,3.89
2018-09-02T01:47:42.007Z,4.31
2018-09-02T01:47:54.417Z,4.31
2018-09-02T01:48:06.842Z,4.31
2018-09-02T01:48:19.250Z,4.31
2018-09-02T01:48:31.670Z,4.31
2018-09-02T01:48:44.103Z,4.31
2018-09-02T01:48:56.561Z,4.31
2018-09-02T01:49:09.373Z,4.31
2018-09-02T01:49:21.778Z,4.31
2018-09-02T01:49:34.169Z,4.31
2018-09-02T01:49:46.605Z,4.31
2018-09-02T01:49:59.013Z,4.31
2018-09-02T01:50:11.445Z,4.31
2018-09-02T01:50:23.845Z,4.31
2018-09-02T01:50:36.248Z,4.31
2018-09-02T01:50:48.643Z,4.31
2018-09-02T01:51:01.045Z,4.31
2018-09-02T01:51:13.456Z,4.31
2018-09-02T01:51:25.860Z,4.31
2018-09-02T01:51:38.268Z,4.31
2018-09-02T01:51:50.689Z,4.31
2018-09-02T01:52:03.117Z,4.31
2018-09-02T01:52:15.527Z,4.31
2018-09-02T01:52:27.927Z,4.31
2018-09-02T01:52:40.324Z,4.31
2018-09-02T01:52:52.726Z,4.31
2018-09-02T01:53:05.142Z,4.31
2018-09-02T01:53:17.545Z,4.31
2018-09-02T01:53:29.959Z,4.31
2018-09-02T01:53:42.378Z,4.31
2018-09-02T01:53:54.773Z,4.31
2018-09-02T01:54:07.161Z,4.31
2018-09-02T01:54:19.594Z,4.31
2018-09-02T01:54:32.011Z,4.31
2018-09-02T01:54:44.431Z,4.31
2018-09-02T01:54:56.827Z,4.31
2018-09-02T01:55:09.241Z,4.31
2018-09-02T01:55:21.640Z,4.31
2018-09-02T01:55:34.043Z,4.31
2018-09-02T01:55:46.427Z,4.31
2018-09-02T01:55:58.825Z,4.31
2018-09-02T01:56:11.214Z,4.31
2018-09-02T01:56:23.612Z,4.31
2018-09-02T01:56:36.103Z,4.31
2018-09-02T01:56:48.800Z,4.31
2018-09-02T01:57:01.231Z,4.31
2018-09-02T01:57:13.629Z,4.31
2018-09-02T01:57:26.040Z,4.31
2018-09-02T01:57:38.464Z,4.45
2018-09-02T01:57:50.906Z,4.45
2018-09-02T01:58:03.332Z,4.45
2018-09-02T01:58:15.727Z,4.45
2018-09-02T01:58:28.126Z,4.45
2018-09-02T01:58:40.525Z,4.45
2018-09-02T01:58:52.934Z,4.45
2018-09-02T01:59:05.353Z,4.45
2018-09-02T01:59:17.763Z,4.45
2018-09-02T01:59:30.187Z,4.45
2018-09-02T01:59:42.600Z,4.45
2018-09-02T01:59:55.022Z,4.45
2018-09-02T02:00:07.431Z,4.45
2018-09-02T02:00:19.853Z,4.45
2018-09-02T02:00:32.264Z,4.45
2018-09-02T02:00:44.675Z,4.45
2018-09-02T02:00:57.113Z,4.45
2018-09-02T02:01:09.535Z,4.45
2018-09-02T02:01:22.101Z,4.45
2018-09-02T02:01:34.590Z,4.45
2018-09-02T02:01:47.014Z,4.45
2018-09-02T02:01:59.430Z,4.45
2018-09-02T02:02:11.851Z,4.45
2018-09-02T02:02:24.286Z,4.45
2018-09-02T02:02:36.692Z,4.45
2018-09-02T02:02:49.114Z,4.45
2018-09-02T02:03:01.617Z,4.45
2018-09-02T02:03:14.044Z,4.45
2018-09-02T02:03:26.447Z,4.45
2018-09-02T02:03:38.857Z,4.45
2018-09-02T02:03:51.269Z,4.45
2018-09-02T02:04:03.689Z,4.45
2018-09-02T02:04:16.097Z,4.45
2018-09-02T02:04:28.499Z,4.45
2018-09-02T02:04:40.910Z,4.45
2018-09-02T02:04:53.351Z,4.45
2018-09-02T02:05:05.787Z,4.45
2018-09-02T02:05:18.196Z,4.45
2018-09-02T02:05:30.590Z,4.45
2018-09-02T02:05:43.000Z,4.45
2018-09-02T02:05:55.423Z,4.45
2018-09-02T02:06:07.835Z,4.45
2018-09-02T02:06:20.262Z,4.45
2018-09-02T02:06:32.668Z,4.45
2018-09-02T02:06:45.071Z,4.45
2018-09-02T02:06:57.514Z,4.45
2018-09-02T02:07:09.920Z,4.45
2018-09-02T02:07:22.324Z,4.45
2018-09-02T02:07:34.740Z,4.45
2018-09-02T02:07:47.143Z,4.88
2018-09-02T02:07:59.598Z,4.88
2018-09-02T02:08:12.024Z,4.88
2018-09-02T02:08:24.433Z,4.88
2018-09-02T02:08:36.924Z,4.88
2018-09-02T02:08:49.339Z,4.88
2018-09-02T02:09:01.761Z,4.88
2018-09-02T02:09:14.178Z,4.88
2018-09-02T02:09:26.581Z,4.88
2018-09-02T02:09:38.996Z,4.88
2018-09-02T02:09:51.411Z,4.88
2018-09-02T02:10:03.809Z,4.88
2018-09-02T02:10:16.214Z,4.88
2018-09-02T02:10:28.613Z,4.88
2018-09-02T02:10:41.011Z,4.88
2018-09-02T02:10:53.432Z,4.88
2018-09-02T02:11:05.845Z,4.88
2018-09-02T02:11:18.261Z,4.88
2018-09-02T02:11:30.685Z,4.88
2018-09-02T02:11:43.265Z,4.88
2018-09-02T02:11:55.671Z,4.88
2018-09-02T02:12:08.079Z,4.88
2018-09-02T02:12:20.479Z,4.88
2018-09-02T02:12:32.906Z,4.88
2018-09-02T02:12:45.487Z,4.88
2018-09-02T02:12:57.916Z,4.88
2018-09-02T02:13:10.319Z,4.88
2018-09-02T02:13:22.717Z,4.88
2018-09-02T02:13:35.126Z,4.88
2018-09-02T02:13:47.547Z,4.88
2018-09-02T02:13:59.944Z,4.88
2018-09-02T02:14:12.364Z,4.88
2018-09-02T02:14:24.820Z,4.88
2018-09-02T02:14:37.242Z,4.88
2018-09-02T02:14:49.646Z,4.88
2018-09-02T02:15:02.091Z,4.88
2018-09-02T02:15:14.497Z,4.88
2018-09-02T02:15:26.908Z,4.88
2018-09-02T02:15:39.394Z,4.88
2018-09-02T02:15:51.807Z,4.88
2018-09-02T02:16:04.252Z,4.88
2018-09-02T02:16:16.721Z,4.88
2018-09-02T02:16:29.133Z,4.88
2018-09-02T02:16:41.549Z,4.88
2018-09-02T02:16:53.958Z,4.88
2018-09-02T02:17:06.364Z,4.88
2018-09-02T02:17:18.766Z,4.88
2018-09-02T02:17:31.168Z,4.88
2018-09-02T02:17:43.570Z,4.43
2018-09-02T02:17:55.977Z,4.43
2018-09-02T02:18:08.367Z,4.43
2018-09-02T02:18:20.833Z,4.43
2018-09-02T02:18:33.301Z,4.43
2018-09-02T02:18:45.784Z,4.43
2018-09-02T02:18:58.178Z,4.43
2018-09-02T02:19:10.605Z,4.43
2018-09-02T02:19:23.015Z,4.43
2018-09-02T02:19:35.491Z,4.43
2018-09-02T02:19:47.906Z,4.43
2018-09-02T02:20:00.313Z,4.43
2018-09-02T02:20:12.739Z,4.43
2018-09-02T02:20:25.134Z,4.43
2018-09-02T02:20:37.565Z,4.43
2018-09-02T02:20:49.975Z,4.43
2018-09-02T02:21:02.384Z,4.43
2018-09-02T02:21:14.869Z,4.43
2018-09-02T02:21:27.272Z,4.43
2018-09-02T02:21:39.675Z,4.43
2018-09-02T02:21:52.089Z,4.43
2018-09-02T02:22:04.497Z,4.43
2018-09-02T02:22:16.907Z,4.43
2018-09-02T02:22:29.318Z,4.43
2018-09-02T02:22:41.708Z,4.43
2018-09-02T02:22:54.152Z,4.43
2018-09-02T02:23:06.561Z,4.43
2018-09-02T02:23:18.973Z,4.43
2018-09-02T02:23:31.389Z,4.43
2018-09-02T02:23:43.980Z,4.43
2018-09-02T02:23:56.385Z,4.43
2018-09-02T02:24:08.788Z,4.43
2018-09-02T02:24:21.372Z,4.43
2018-09-02T02:24:33.780Z,4.43
2018-09-02T02:24:46.183Z,4.43
2018-09-02T02:24:58.573Z,4.43
2018-09-02T02:25:11.018Z,4.43
2018-09-02T02:25:23.424Z,4.43
2018-09-02T02:25:36.139Z,4.43
2018-09-02T02:25:48.539Z,4.43
2018-09-02T02:26:01.016Z,4.43
2018-09-02T02:26:13.431Z,4.43
2018-09-02T02:26:25.831Z,4.43
2018-09-02T02:26:38.231Z,4.43
2018-09-02T02:26:50.638Z,4.43
2018-09-02T02:27:03.054Z,4.43
2018-09-02T02:27:15.459Z,4.43
2018-09-02T02:27:27.866Z,4.43
2018-09-02T02:27:40.353Z,4.52
2018-09-02T02:27:52.776Z,4.52
2018-09-02T02:28:05.180Z,4.52
2018-09-02T02:28:17.595Z,4.52
2018-09-02T02:28:29.999Z,4.52
2018-09-02T02:28:42.391Z,4.52
2018-09-02T02:28:54.787Z,4.52
2018-09-02T02:29:07.270Z,4.52
2018-09-02T02:29:19.688Z,4.52
2018-09-02T02:29:32.099Z,4.52
2018-09-02T02:29:44.527Z,4.52
2018-09-02T02:29:56.921Z,4.52
2018-09-02T02:30:09.379Z,4.52
2018-09-02T02:30:21.797Z,4.52
2018-09-02T02:30:34.362Z,4.52
2018-09-02T02:30:46.761Z,4.52
2018-09-02T02:30:59.177Z,4.52
2018-09-02T02:31:11.637Z,4.52
2018-09-02T02:31:24.042Z,4.52
2018-09-02T02:31:36.499Z,4.52
2018-09-02T02:31:48.967Z,4.52
2018-09-02T02:32:01.382Z,4.52
2018-09-02T02:32:13.843Z,4.52
2018-09-02T02:32:26.254Z,4.52
2018-09-02T02:32:38.675Z,4.52
2018-09-02T02:32:51.113Z,4.52
2018-09-02T02:33:03.633Z,4.52
2018-09-02T02:33:16.027Z,4.52
2018-09-02T02:33:28.427Z,4.52
2018-09-02T02:33:40.830Z,4.52
2018-09-02T02:33:53.247Z,4.52
2018-09-02T02:34:05.783Z,4.52
2018-09-02T02:34:18.243Z,4.52
2018-09-02T02:34:30.656Z,4.52
2018-09-02T02:34:43.060Z,4.52
2018-09-02T02:34:55.468Z,4.52
2018-09-02T02:35:07.900Z,4.52
2018-09-02T02:35:20.303Z,4.52
2018-09-02T02:35:32.716Z,4.52
2018-09-02T02:35:45.118Z,4.52
2018-09-02T02:35:57.534Z,4.52
2018-09-02T02:36:10.418Z,4.52
2018-09-02T02:36:22.845Z,4.52
2018-09-02T02:36:35.273Z,4.52
2018-09-02T02:36:47.691Z,4.52
2018-09-02T02:37:00.164Z,4.52
2018-09-02T02:37:12.587Z,4.52
2018-09-02T02:37:24.998Z,4.52
2018-09-02T02:37:37.401Z,4.52
2018-09-02T02:37:49.839Z,4.23
2018-09-02T02:38:02.266Z,4.23
2018-09-02T02:38:14.689Z,4.23
2018-09-02T02:38:27.111Z,4.23
2018-09-02T02:38:39.518Z,4.23
2018-09-02T02:38:51.923Z,4.23
2018-09-02T02:39:04.355Z,4.23
2018-09-02T02:39:16.805Z,4.23
2018-09-02T02:39:29.234Z,4.23
2018-09-02T02:39:41.671Z,4.23
2018-09-02T02:39:54.091Z,4.23
2018-09-02T02:40:06.521Z,4.23
2018-09-02T02:40:18.927Z,4.23
2018-09-02T02:40:31.389Z,4.23
2018-09-02T02:40:43.806Z,4.23
2018-09-02T02:40:56.211Z,4.23
2018-09-02T02:41:08.601Z,4.23
2018-09-02T02:41:21.225Z,4.23
2018-09-02T02:41:33.650Z,4.23
2018-09-02T02:41:46.209Z,4.23
2018-09-02T02:41:58.620Z,4.23
2018-09-02T02:42:11.226Z,4.23
2018-09-02T02:42:23.645Z,4.23
2018-09-02T02:42:36.065Z,4.23
2018-09-02T02:42:48.478Z,4.23
2018-09-02T02:43:00.900Z,4.23
2018-09-02T02:43:13.307Z,4.23
2018-09-02T02:43:25.754Z,4.23
2018-09-02T02:43:38.150Z,4.23
2018-09-02T02:43:50.563Z,4.23
2018-09-02T02:44:02.973Z,4.23
2018-09-02T02:44:15.394Z,4.23
2018-09-02T02:44:27.806Z,4.23
2018-09-02T02:44:40.222Z,4.23
2018-09-02T02:44:52.633Z,4.23
2018-09-02T02:45:05.037Z,4.23
2018-09-02T02:45:17.460Z,4.23
2018-09-02T02:45:29.947Z,4.23
2018-09-02T02:45:42.343Z,4.23
2018-09-02T02:45:54.764Z,4.23
2018-09-02T02:46:07.180Z,4.23
2018-09-02T02:46:19.592Z,4.23